Latest Weather Observations for Point Perpendicular

IDN60801

Issued at 7:22 pm EST Wednesday 12 August 2020 (issued every 10 minutes, with the page automatically refreshed every 10 minutes)

About weather observations | Map of weather stations | Latest weather observations for NSW | Other Formats
Station Details ID: 068151 Name: POINT PERPENDICULAR AWS Lat: -35.09 Lon: 150.80 Height: 85.0 m
Data from the previous 72 hours. | See also: Recent months at Point Perpendicular
Date/Time
EST
Temp
°C
App
Temp
°C
Dew
Point
°C
Rel
Hum
%
Delta-T
°C
Wind Press
QNH
hPa
Press
MSL
hPa
Rain since
9am
mm
Dir  Spd
km/h
Gust
km/h
Spd
kts
Gust
kts
12/07:00pm 14.4 13.8 12.4 88 1.1 N 7 9 4 5 1012.6 1012.5 0.2
12/06:30pm 14.8 13.2 11.4 80 1.8 NNE 11 13 6 7 1012.1 1012.0 0.0
12/06:00pm 14.9 12.9 11.5 80 1.8 N 13 15 7 8 1012.1 1012.0 0.0
12/05:30pm 14.8 13.2 11.6 81 1.7 N 11 13 6 7 1011.9 1011.8 0.0
12/05:00pm 14.9 13.6 11.3 79 1.9 NNE 9 15 5 8 1011.6 1011.5 0.0
12/04:30pm 15.0 13.8 11.6 80 1.8 NNE 9 13 5 7 1011.4 1011.3 0.0
12/04:00pm 15.1 13.0 11.3 78 2.0 NNE 13 17 7 9 1011.4 1011.3 0.0
12/03:30pm 15.1 13.5 11.7 80 1.8 NNE 11 19 6 10 1011.4 1011.3 0.0
12/03:00pm 15.6 13.1 11.0 74 2.5 NNE 15 20 8 11 1011.7 1011.6 0.0
12/02:30pm 16.1 13.7 11.5 74 2.5 NNE 15 19 8 10 1011.8 1011.7 0.0
12/02:00pm 16.0 14.0 10.3 69 3.0 NNE 11 15 6 8 1011.9 1011.8 0.0
12/01:30pm 17.5 15.3 9.4 59 4.3 N 11 15 6 8 1012.3 1012.2 0.0
12/01:00pm 18.5 16.7 10.8 61 4.2 NNE 11 19 6 10 1012.6 1012.5 0.0
12/12:30pm 16.6 13.9 10.5 67 3.3 N 15 20 8 11 1013.3 1013.3 0.0
12/12:00pm 15.7 13.3 10.2 70 2.9 N 13 20 7 11 1013.9 1013.9 0.0
12/11:30am 14.7 11.5 10.1 74 2.4 N 17 20 9 11 1014.6 1014.6 0.0
12/11:00am 14.5 11.6 9.7 73 2.5 N 15 24 8 13 1015.2 1015.2 0.0
12/10:30am 14.7 11.7 9.3 70 2.8 N 15 22 8 12 1015.5 1015.5 0.0
12/10:00am 14.8 11.5 9.6 71 2.7 N 17 22 9 12 1015.7 1015.7 0.0
12/09:30am 14.9 11.6 9.5 70 2.8 NNE 17 26 9 14 1015.9 1015.9 0.0
12/09:00am 13.8 10.1 9.3 74 2.3 N 19 24 10 13 1016.3 1016.3 0.0
12/08:30am 13.0 10.2 8.7 75 2.2 N 13 17 7 9 1016.0 1016.0 0.0
12/08:00am 11.5 9.0 8.2 80 1.6 N 11 15 6 8 1016.2 1016.2 0.0
12/07:30am 10.9 8.7 8.0 82 1.4 NNW 9 9 5 5 1016.3 1016.3 0.0
12/07:00am 10.8 8.7 8.2 84 1.3 NW 9 11 5 6 1016.1 1016.1 0.0
12/06:30am 10.7 9.1 8.1 84 1.3 NNW 6 6 3 3 1016.1 1016.1 0.0
12/06:00am 11.0 9.3 8.4 84 1.3 NW 7 9 4 5 1016.0 1016.0 0.0
12/05:30am 11.0 8.4 7.9 81 1.5 NNW 11 13 6 7 1016.1 1016.1 0.0
12/05:00am 11.3 8.8 8.0 80 1.6 N 11 13 6 7 1016.1 1016.1 0.0
12/04:30am 11.0 8.5 8.1 82 1.4 NNW 11 13 6 7 1015.9 1015.9 0.0
12/04:00am 11.1 8.9 7.8 80 1.6 NNW 9 9 5 5 1015.9 1015.9 0.0
12/03:30am 10.8 9.1 8.2 84 1.3 NW 7 9 4 5 1016.2 1016.2 0.0
12/03:00am 10.8 8.8 8.7 87 1.0 NW 9 13 5 7 1016.5 1016.5 0.0
12/02:30am 12.1 9.5 9.3 83 1.4 N 13 17 7 9 1016.6 1016.6 0.0
12/02:00am 11.7 9.0 9.1 84 1.3 N 13 15 7 8 1016.9 1016.9 0.0
12/01:30am 11.0 8.9 8.1 82 1.4 NNW 9 11 5 6 1017.5 1017.5 0.0
12/01:00am 11.2 8.4 8.6 84 1.3 N 13 15 7 8 1017.5 1017.5 0.0
12/12:30am 10.9 8.5 8.7 86 1.1 NNW 11 11 6 6 1017.7 1017.7 0.0
12/12:00am 11.4 9.6 9.3 87 1.1 NNW 9 11 5 6 1017.7 1017.7 0.0
 
Date/Time
EST
Temp
°C
App
Temp
°C
Dew
Point
°C
Rel
Hum
%
Delta-T
°C
Wind Press
QNH
hPa
Press
MSL
hPa
Rain since
9am
mm
Dir  Spd
km/h
Gust
km/h
Spd
kts
Gust
kts
11/11:30pm 11.5 9.0 9.8 89 0.9 N 13 15 7 8 1017.7 1017.7 0.0
11/11:00pm 11.6 9.5 9.7 88 1.0 NNE 11 15 6 8 1017.6 1017.6 0.0
11/10:30pm 11.6 9.1 9.7 88 1.0 N 13 15 7 8 1017.8 1017.8 0.0
11/10:00pm 11.8 9.2 9.5 86 1.2 N 13 17 7 9 1018.0 1018.0 0.0
11/09:30pm 12.0 9.5 9.6 85 1.2 N 13 17 7 9 1018.6 1018.6 0.0
11/09:00pm 11.9 9.3 9.5 85 1.2 N 13 17 7 9 1018.7 1018.7 0.0
11/08:30pm 12.0 8.9 9.0 82 1.5 N 15 19 8 10 1018.7 1018.7 0.0
11/08:00pm 11.8 8.6 8.6 81 1.6 NNE 15 17 8 9 1018.6 1018.6 0.0
11/07:30pm 11.8 8.9 8.1 78 1.8 NNE 13 17 7 9 1018.5 1018.5 0.0
11/07:00pm 12.0 9.1 8.1 77 1.9 NNE 13 17 7 9 1018.6 1018.6 0.0
11/06:30pm 11.8 8.8 7.7 76 2.0 NNE 13 17 7 9 1018.3 1018.3 0.0
11/06:00pm 12.1 9.6 8.0 76 2.0 NNE 11 17 6 9 1018.1 1018.1 0.0
11/05:30pm 12.4 9.4 7.7 73 2.3 NE 13 19 7 10 1017.7 1017.7 0.0
11/05:00pm 13.0 10.7 7.5 69 2.7 NE 9 17 5 9 1017.6 1017.6 0.0
11/04:30pm 14.2 11.1 7.3 63 3.4 NNE 13 19 7 10 1017.6 1017.6 0.0
11/04:00pm 14.4 11.7 7.5 63 3.4 NNE 11 17 6 9 1018.0 1018.0 0.0
11/03:30pm 15.0 11.3 6.3 56 4.2 NE 15 20 8 11 1018.0 1018.0 0.0
11/03:00pm 15.3 11.6 6.1 54 4.4 NE 15 22 8 12 1018.2 1018.2 0.0
11/02:30pm 14.9 11.1 6.0 55 4.3 N 15 24 8 13 1018.3 1018.3 0.0
11/02:00pm 15.1 11.8 6.4 56 4.2 NNE 13 24 7 13 1018.6 1018.6 0.0
11/01:30pm 16.1 13.3 6.8 54 4.6 N 11 19 6 10 1018.7 1018.7 0.0
11/01:00pm 16.5 13.4 7.2 54 4.6 N 13 22 7 12 1018.9 1018.9 0.0
11/12:30pm 14.4 12.8 8.8 69 2.8 NW 7 15 4 8 1019.6 1019.6 0.0
11/12:00pm 14.0 12.9 8.6 70 2.7 WNW 4 9 2 5 1020.3 1020.3 0.0
11/11:30am 14.6 13.1 8.5 67 3.1 WNW 6 11 3 6 1020.8 1020.8 0.0
11/11:00am 13.5 11.8 8.4 71 2.5 NW 7 13 4 7 1021.2 1021.2 0.0
11/10:30am 13.1 12.0 8.4 73 2.3 WNW 4 9 2 5 1021.3 1021.3 0.0
11/10:00am 12.2 10.5 8.5 78 1.8 NW 7 13 4 7 1021.4 1021.4 0.0
11/09:30am 11.6 9.6 8.6 82 1.5 WNW 9 17 5 9 1021.4 1021.4 0.0
11/09:00am 11.1 9.0 8.1 82 1.5 WNW 9 17 5 9 1021.4 1021.4 2.4
11/08:30am 10.8 8.3 8.4 85 1.2 NW 11 15 6 8 1021.4 1021.4 2.4
11/08:00am 10.4 8.3 8.2 86 1.1 WNW 9 17 5 9 1021.5 1021.5 2.4
11/07:30am 10.3 8.8 8.4 88 0.9 WNW 6 11 3 6 1021.6 1021.6 2.4
11/07:00am 9.9 8.2 8.3 90 0.8 WNW 7 13 4 7 1021.4 1021.4 2.4
11/06:30am 9.9 7.8 8.3 90 0.8 WNW 9 11 5 6 1021.1 1021.1 2.4
11/06:00am 10.2 8.1 8.1 87 1.0 WNW 9 15 5 8 1021.0 1021.0 2.4
11/05:30am 10.8 8.6 7.9 82 1.4 WNW 9 15 5 8 1021.0 1021.0 2.4
11/05:00am 10.9 9.5 7.4 79 1.7 W 4 6 2 3 1021.0 1021.0 2.4
11/04:30am 11.2 9.2 7.3 77 1.9 WSW 7 13 4 7 1020.9 1020.9 2.4
11/04:00am 10.8 8.2 7.7 81 1.5 WSW 11 19 6 10 1020.8 1020.8 2.4
11/03:30am 10.4 7.0 7.6 83 1.3 WSW 15 22 8 12 1020.8 1020.8 2.4
11/03:00am 10.6 7.7 8.0 84 1.3 WSW 13 19 7 10 1021.0 1021.0 2.4
11/02:30am 11.0 8.7 7.5 79 1.7 WSW 9 17 5 9 1021.1 1021.1 2.4
11/02:00am 10.9 7.8 8.7 86 1.1 WSW 15 22 8 12 1021.1 1021.1 2.4
11/01:30am 11.0 9.5 9.1 88 0.9 W 7 17 4 9 1021.2 1021.2 2.4
11/01:00am 12.3 10.5 9.5 83 1.4 WSW 9 15 5 8 1021.2 1021.2 2.4
11/12:30am 12.2 8.7 10.3 88 1.0 SSW 19 24 10 13 1020.8 1020.8 2.4
11/12:00am 12.6 11.6 8.7 77 1.9 WSW 4 11 2 6 1020.9 1020.9 2.4
 
Date/Time
EST
Temp
°C
App
Temp
°C
Dew
Point
°C
Rel
Hum
%
Delta-T
°C
Wind Press
QNH
hPa
Press
MSL
hPa
Rain since
9am
mm
Dir  Spd
km/h
Gust
km/h
Spd
kts
Gust
kts
10/11:30pm 12.6 11.2 9.4 81 1.6 SSW 7 13 4 7 1021.0 1021.0 2.4
10/11:00pm 11.2 9.5 9.8 91 0.7 SSW 9 15 5 8 1021.2 1021.2 2.4
10/10:30pm 12.0 10.3 9.9 87 1.1 S 9 19 5 10 1020.5 1020.5 2.4
10/10:00pm 11.7 9.2 9.6 87 1.1 SSE 13 26 7 14 1021.3 1021.3 1.2
10/09:30pm 12.8 9.5 9.4 80 1.7 SSW 17 26 9 14 1021.2 1021.2 1.2
10/09:00pm 12.5 10.2 9.0 79 1.8 S 11 19 6 10 1021.4 1021.4 1.2
10/08:30pm 12.8 8.8 8.9 77 2.0 SSW 20 37 11 20 1021.3 1021.3 1.0
10/08:00pm 12.8 8.9 8.7 76 2.1 S 19 30 10 16 1021.1 1021.1 1.0
10/07:30pm 12.3 7.8 9.9 85 1.2 S 24 35 13 19 1020.9 1020.9 1.0
10/07:00pm 11.9 6.8 9.3 84 1.3 S 26 39 14 21 1021.2 1021.2 1.0
10/06:30pm 13.2 8.2 8.1 71 2.5 SSW 24 35 13 19 1020.7 1020.7 1.0
10/06:00pm 13.2 8.0 7.4 68 2.8 SSW 24 39 13 21 1019.9 1019.9 1.0
10/05:30pm 13.0 6.6 8.7 75 2.2 SSW 32 46 17 25 1019.7 1019.7 1.0
10/05:00pm 12.5 6.0 8.2 75 2.1 SSW 32 46 17 25 1019.5 1019.5 1.0
10/04:48pm 13.6 7.8 7.8 68 2.9 SSW 28 46 15 25 1019.2 1019.2 1.0
10/04:30pm 13.6 7.5 8.2 70 2.7 SSW 30 44 16 24 1019.1 1019.1 1.0
10/04:00pm 13.2 6.7 8.1 71 2.5 SSW 32 52 17 28 1018.5 1018.5 1.0
10/03:30pm 13.4 7.4 8.7 73 2.4 S 30 50 16 27 1018.4 1018.4 1.0
10/03:11pm 13.5 7.6 7.3 66 3.0 SSW 28 46 15 25 1018.7 1018.7 1.0
10/03:00pm 12.9 6.1 7.6 70 2.6 SSW 33 50 18 27 1018.6 1018.6 1.0
10/02:33pm 12.3 6.8 9.1 81 1.6 SSW 28 46 15 25 1018.6 1018.6 1.0
10/02:30pm 11.7 5.4 9.1 84 1.3 SSW 32 46 17 25 1018.6 1018.6 1.0
10/02:00pm 12.3 5.1 9.3 82 1.5 S 37 57 20 31 1018.6 1018.6 0.4
10/01:33pm 13.4 7.2 8.0 70 2.7 S 30 48 16 26 1018.6 1018.6 0.0
10/01:30pm 13.7 7.3 8.7 72 2.5 S 32 48 17 26 1018.5 1018.5 0.0
10/01:00pm 14.4 8.0 8.6 68 2.9 S 32 50 17 27 1018.2 1018.2 0.0
10/12:30pm 13.2 5.9 8.7 74 2.3 S 37 56 20 30 1018.3 1018.3 0.0
10/12:09pm 13.5 6.6 8.8 73 2.4 S 35 56 19 30 1018.3 1018.3 0.0
10/12:00pm 14.7 7.9 7.0 60 3.8 S 32 46 17 25 1018.4 1018.4 0.0
10/11:30am 14.2 7.8 6.8 61 3.6 S 30 48 16 26 1018.7 1018.7 0.0
10/11:00am 13.9 7.5 8.5 70 2.7 S 32 54 17 29 1018.8 1018.8 0.0
10/10:35am 14.3 7.1 7.6 64 3.3 S 35 54 19 29 1018.4 1018.4 0.0
10/10:30am 14.5 7.0 7.8 64 3.3 S 37 54 20 29 1018.5 1018.5 0.0
10/10:00am 14.2 7.4 7.9 66 3.1 S 33 52 18 28 1018.3 1018.3 0.0
10/09:30am 14.4 7.9 6.7 60 3.7 SSE 30 48 16 26 1017.9 1017.9 0.0
10/09:24am 14.5 8.4 6.6 59 3.8 S 28 48 15 26 1017.8 1017.8 0.0
10/09:00am 13.6 7.6 10.0 79 1.9 SSE 32 44 17 24 1017.9 1017.9 41.8
10/08:30am 14.0 7.8 9.2 73 2.5 SSE 32 52 17 28 1017.2 1017.2 41.8
10/08:00am 14.0 7.1 6.6 61 3.6 S 32 52 17 28 1017.0 1017.0 41.8
10/07:42am 14.1 7.5 8.7 70 2.7 S 33 52 18 28 1016.6 1016.6 41.8
10/07:30am 14.0 7.3 8.2 68 2.9 S 33 50 18 27 1016.0 1016.0 41.8
10/07:00am 12.9 5.0 7.8 71 2.5 S 39 57 21 31 1015.9 1015.9 41.8
10/06:30am 13.8 7.1 9.5 75 2.2 S 35 57 19 31 1014.8 1014.8 41.8
10/06:00am 13.9 6.2 8.5 70 2.7 S 39 57 21 31 1014.6 1014.6 41.8
10/05:30am 14.0 6.2 8.4 69 2.8 S 39 61 21 33 1013.6 1013.6 41.8
10/05:00am 13.7 6.0 8.7 72 2.5 S 39 63 21 34 1013.1 1013.0 41.8
10/04:30am 14.2 5.8 9.0 71 2.7 S 43 67 23 36 1012.7 1012.6 41.6
10/04:00am 14.2 6.6 9.2 72 2.6 SSE 39 63 21 34 1012.2 1012.1 41.6
10/03:30am 12.8 5.3 9.3 79 1.8 S 39 63 21 34 1011.9 1011.8 41.6
10/03:00am 13.3 5.6 10.1 81 1.7 SSE 41 61 22 33 1012.4 1012.3 40.8
10/02:30am 14.2 6.0 9.6 74 2.4 S 43 67 23 36 1012.1 1012.0 40.6
10/02:00am 14.2 7.4 10.6 79 1.9 SSE 37 61 20 33 1012.2 1012.1 40.4
10/01:30am 14.2 6.7 9.6 74 2.4 SSE 39 63 21 34 1011.6 1011.5 40.4
10/01:00am 12.7 5.2 10.8 88 1.0 SSE 41 65 22 35 1012.4 1012.3 40.2
10/12:30am 12.7 6.9 10.8 88 1.0 SSE 32 61 17 33 1011.2 1011.1 40.0
10/12:00am 13.0 7.1 11.1 88 1.0 SSE 33 52 18 28 1012.1 1012.0 34.8
 
Date/Time
EST
Temp
°C
App
Temp
°C
Dew
Point
°C
Rel
Hum
%
Delta-T
°C
Wind Press
QNH
hPa
Press
MSL
hPa
Rain since
9am
mm
Dir  Spd
km/h
Gust
km/h
Spd
kts
Gust
kts
09/11:30pm 13.6 7.4 11.5 87 1.1 SSE 35 54 19 29 1011.6 1011.5 34.4
09/11:00pm 12.7 5.6 10.9 89 0.9 SSE 39 59 21 32 1010.8 1010.8 34.4
09/10:30pm 13.0 6.2 11.9 93 0.6 SSE 39 67 21 36 1010.8 1010.8 33.8
09/10:00pm 12.8 6.2 11.2 90 0.8 SSE 37 63 20 34 1010.7 1010.7 31.2
09/09:30pm 13.0 6.7 11.2 89 1.0 SSE 35 59 19 32 1010.5 1010.5 28.6
09/09:00pm 13.5 5.8 11.4 87 1.1 SSE 43 70 23 38 1009.8 1009.8 28.0
09/08:30pm 13.4 6.0 11.3 87 1.1 SSE 41 69 22 37 1009.8 1009.8 27.4
09/08:00pm 13.9 6.1 11.1 83 1.5 SSE 43 69 23 37 1009.1 1009.1 27.0
09/07:30pm 14.2 6.4 11.0 81 1.7 SSE 43 67 23 36 1008.4 1008.4 27.0

Other formats

Comma delimited format used in spreadsheet applications
http://www.bom.gov.au/fwo/IDN60801/IDN60801.95940.axf

JavaScript Object Notation format (JSON) in row-major order
http://www.bom.gov.au/fwo/IDN60801/IDN60801.95940.json

Data quality

Most of these data are generated automatically and are frequently updated. Quality checks on data are not normally performed. It is possible for incorrect values to appear. Refer to information at About Latest Weather Observations and please check the disclaimer before using these data.